Time;durP1;ratioP1;P1;durP2;ratioP2;P2;SDS_P1;SDS_P2;PMS_P1;PMS_P2;Temp;Humidity;BMP_temperature;BMP_pressure;BME280_temperature;BME280_humidity;BME280_pressure;Samples;Min_cycle;Max_cycle;Signal;HPM_P1;HPM_P2
2021/12/29 00:01:52;;;;;;;10.13;4.80;;;;;9.10;99786.00;;;;10522086;28;20204;-77
2021/12/29 00:06:56;;;;;;;6.30;4.63;;;;;9.10;99794.00;;;;10540383;28;20300;-77
2021/12/29 00:11:58;;;;;;;6.90;4.27;;;;;9.10;99819.00;;;;10541118;28;20200;-78
2021/12/29 00:17:00;;;;;;;8.37;4.47;;;;;9.10;99836.00;;;;10491633;28;20193;-78
2021/12/29 00:22:03;;;;;;;6.10;3.80;;;;;9.10;99835.00;;;;10517775;28;20197;-77
2021/12/29 00:27:06;;;;;;;9.10;3.77;;;;;9.10;99844.00;;;;10478093;28;20623;-77
2021/12/29 00:32:08;;;;;;;7.00;3.80;;;;;9.10;99838.00;;;;10530086;27;20184;-77
2021/12/29 00:37:29;;;;;;;8.30;3.83;;;;;9.00;99846.00;;;;10537560;28;20220;-77
2021/12/29 00:42:51;;;;;;;6.57;4.10;;;;;9.00;99859.00;;;;10535447;28;20201;-77
2021/12/29 00:48:19;;;;;;;6.53;3.73;;;;;9.00;99872.00;;;;10547405;28;20192;-77
2021/12/29 00:53:22;;;;;;;5.83;4.27;;;;;9.00;99880.00;;;;10513887;28;20188;-78
2021/12/29 00:58:24;;;;;;;4.93;3.40;;;;;9.00;99868.00;;;;10493097;28;20652;-77
2021/12/29 01:03:27;;;;;;;5.70;3.20;;;;;9.00;99896.00;;;;10509156;28;20209;-77
2021/12/29 01:08:29;;;;;;;8.03;3.93;;;;;9.00;99889.00;;;;10525313;27;20196;-77
2021/12/29 01:13:33;;;;;;;7.50;3.63;;;;;9.00;99909.00;;;;10530371;28;20242;-77
2021/12/29 01:18:37;;;;;;;6.27;3.20;;;;;9.00;99920.00;;;;10518441;28;20216;-77
2021/12/29 01:23:39;;;;;;;9.60;4.77;;;;;9.00;99924.00;;;;10507783;28;20349;-77
2021/12/29 01:28:41;;;;;;;7.90;3.70;;;;;9.00;99928.00;;;;10501132;28;20225;-77
2021/12/29 01:33:43;;;;;;;8.23;4.40;;;;;9.00;99945.00;;;;10513735;27;20605;-77
2021/12/29 01:38:45;;;;;;;10.33;4.57;;;;;9.10;99945.00;;;;10517743;27;20196;-77
2021/12/29 01:43:47;;;;;;;7.33;5.07;;;;;9.10;99967.00;;;;10527954;28;20204;-76
2021/12/29 01:48:49;;;;;;;6.53;5.27;;;;;9.00;99976.00;;;;10513552;28;20200;-77
2021/12/29 01:54:04;;;;;;;8.90;5.00;;;;;9.00;99977.00;;;;10513314;28;20192;-77
2021/12/29 01:59:06;;;;;;;7.37;4.77;;;;;9.10;99984.00;;;;10506052;28;20254;-77
2021/12/29 02:04:08;;;;;;;8.90;4.63;;;;;9.00;99980.00;;;;10517394;28;20208;-78
2021/12/29 02:09:10;;;;;;;7.60;4.37;;;;;9.00;99966.00;;;;10516418;28;20192;-78
2021/12/29 02:14:13;;;;;;;9.20;4.87;;;;;9.00;99986.00;;;;10511426;28;20870;-79
2021/12/29 02:19:14;;;;;;;12.30;5.23;;;;;9.10;99999.00;;;;10501547;28;20188;-79
2021/12/29 02:24:19;;;;;;;10.30;4.37;;;;;9.10;100004.00;;;;10559641;28;20299;-78
2021/12/29 02:29:24;;;;;;;8.90;4.57;;;;;9.10;100009.00;;;;10485127;28;20198;-78
2021/12/29 02:34:26;;;;;;;6.43;5.17;;;;;9.10;100013.00;;;;10525255;28;20247;-79
2021/12/29 02:39:31;;;;;;;6.83;4.80;;;;;9.10;100021.00;;;;10510125;28;20223;-78
2021/12/29 02:44:45;;;;;;;13.30;5.60;;;;;9.10;100005.00;;;;10527261;28;20196;-79
2021/12/29 02:49:47;;;;;;;6.50;4.73;;;;;9.10;100009.00;;;;10527958;28;20196;-79
2021/12/29 02:54:49;;;;;;;7.53;4.40;;;;;9.10;100022.00;;;;10536742;28;20234;-79
2021/12/29 02:59:51;;;;;;;8.93;4.43;;;;;9.10;100023.00;;;;10530094;28;20245;-79
2021/12/29 03:04:57;;;;;;;5.53;4.17;;;;;9.10;100022.00;;;;10505792;28;20610;-78
2021/12/29 03:10:04;;;;;;;8.57;4.27;;;;;9.10;100047.00;;;;10514420;28;20250;-78
2021/12/29 03:15:06;;;;;;;7.20;4.23;;;;;9.10;100052.00;;;;10538802;28;20184;-79
2021/12/29 03:20:10;;;;;;;6.60;3.77;;;;;9.10;100043.00;;;;10517092;28;20626;-78
2021/12/29 03:25:11;;;;;;;8.23;3.90;;;;;9.10;100052.00;;;;10496930;28;20212;-78
2021/12/29 03:30:14;;;;;;;7.40;4.43;;;;;9.10;100064.00;;;;10528762;28;20196;-78
2021/12/29 03:35:16;;;;;;;10.27;4.37;;;;;9.10;100065.00;;;;10509161;28;20204;-78
2021/12/29 03:40:18;;;;;;;14.67;4.97;;;;;9.10;100077.00;;;;10535548;28;20200;-78
2021/12/29 03:45:21;;;;;;;7.30;4.27;;;;;9.10;100074.00;;;;10491686;28;20706;-78
2021/12/29 03:50:23;;;;;;;5.10;3.90;;;;;9.10;100082.00;;;;10502301;28;20194;-78
2021/12/29 03:55:24;;;;;;;6.47;4.30;;;;;9.00;100083.00;;;;10500978;28;20208;-79
2021/12/29 04:00:27;;;;;;;6.20;3.90;;;;;9.00;100085.00;;;;10552544;28;20725;-78
2021/12/29 04:05:29;;;;;;;8.83;4.20;;;;;9.00;100075.00;;;;10495966;28;20244;-79
2021/12/29 04:10:31;;;;;;;7.93;4.13;;;;;9.00;100085.00;;;;10507673;28;20192;-79
2021/12/29 04:15:34;;;;;;;7.13;4.40;;;;;9.00;100098.00;;;;10528756;28;20196;-78
2021/12/29 04:25:58;;;;;;;8.13;5.03;;;;;9.00;100104.00;;;;10531606;28;20200;-79
2021/12/29 04:31:07;;;;;;;7.13;4.77;;;;;9.00;100107.00;;;;10524849;28;20197;-78
2021/12/29 04:36:09;;;;;;;8.17;4.90;;;;;9.00;100101.00;;;;10569310;28;20737;-78
2021/12/29 04:41:11;;;;;;;5.30;4.00;;;;;9.00;100099.00;;;;10521939;28;20199;-79
2021/12/29 04:46:16;;;;;;;4.77;4.10;;;;;9.00;100109.00;;;;10515838;28;20234;-78
2021/12/29 04:51:25;;;;;;;5.97;4.33;;;;;9.00;100109.00;;;;10523635;28;20258;-79
2021/12/29 04:56:27;;;;;;;9.87;4.90;;;;;9.00;100115.00;;;;10525329;28;20221;-78
2021/12/29 05:01:29;;;;;;;7.23;5.23;;;;;8.90;100119.00;;;;10508622;28;20197;-78
2021/12/29 05:11:51;;;;;;;5.60;3.83;;;;;8.90;100133.00;;;;10504515;28;20242;-78
2021/12/29 05:16:53;;;;;;;9.17;4.20;;;;;8.90;100124.00;;;;10496733;28;20243;-78
2021/12/29 05:21:56;;;;;;;10.83;4.43;;;;;8.90;100115.00;;;;10511687;28;20292;-78
2021/12/29 05:26:58;;;;;;;9.17;3.80;;;;;8.80;100124.00;;;;10511656;28;20715;-78
2021/12/29 05:32:00;;;;;;;7.37;3.73;;;;;8.90;100122.00;;;;10530970;28;20239;-78
2021/12/29 05:37:03;;;;;;;5.33;4.00;;;;;8.90;100132.00;;;;10534150;28;20208;-78
2021/12/29 05:42:05;;;;;;;12.93;4.07;;;;;8.90;100136.00;;;;10522173;28;20242;-78
2021/12/29 05:47:07;;;;;;;11.17;3.73;;;;;8.90;100139.00;;;;10505544;28;20232;-78
2021/12/29 05:52:10;;;;;;;9.07;3.53;;;;;8.90;100147.00;;;;10542515;28;20197;-78
2021/12/29 05:57:12;;;;;;;7.77;3.57;;;;;8.80;100147.00;;;;10532965;28;20196;-79
2021/12/29 06:02:14;;;;;;;10.10;3.30;;;;;8.80;100149.00;;;;10523638;28;20200;-78
2021/12/29 06:07:16;;;;;;;10.07;3.47;;;;;8.80;100152.00;;;;10520743;28;20204;-79
2021/12/29 06:12:18;;;;;;;9.90;3.60;;;;;8.80;100145.00;;;;10488963;28;20197;-78
2021/12/29 06:17:20;;;;;;;12.77;4.30;;;;;8.80;100154.00;;;;10502720;28;20222;-79
2021/12/29 06:22:22;;;;;;;7.23;3.27;;;;;8.80;100140.00;;;;10517762;28;20205;-78
2021/12/29 06:27:24;;;;;;;6.43;3.40;;;;;8.80;100176.00;;;;10508856;28;20200;-78
2021/12/29 06:32:27;;;;;;;5.47;3.07;;;;;8.80;100164.00;;;;10508329;28;20200;-79
2021/12/29 06:37:28;;;;;;;11.77;3.77;;;;;8.80;100177.00;;;;10517096;28;20212;-79
2021/12/29 06:42:31;;;;;;;7.00;3.33;;;;;8.80;100171.00;;;;10509547;28;20560;-79
2021/12/29 06:47:33;;;;;;;11.07;3.47;;;;;8.80;100169.00;;;;10530041;28;20679;-79
2021/12/29 06:52:35;;;;;;;7.63;3.00;;;;;8.80;100177.00;;;;10504919;28;20192;-79
2021/12/29 06:57:37;;;;;;;11.33;2.87;;;;;8.70;100185.00;;;;10499680;28;20571;-79
2021/12/29 07:02:39;;;;;;;7.27;2.90;;;;;8.70;100184.00;;;;10513794;28;20680;-79
2021/12/29 07:07:42;;;;;;;6.80;2.73;;;;;8.60;100180.00;;;;10526148;27;20211;-79
2021/12/29 07:12:44;;;;;;;10.47;3.50;;;;;8.50;100179.00;;;;10556680;28;20188;-79
2021/12/29 07:17:46;;;;;;;9.57;3.07;;;;;8.50;100176.00;;;;10507395;28;20185;-79
2021/12/29 07:22:47;;;;;;;11.30;3.23;;;;;8.40;100179.00;;;;10537829;28;20196;-79
2021/12/29 07:27:49;;;;;;;8.23;3.30;;;;;8.40;100188.00;;;;10504716;28;20216;-79
2021/12/29 07:32:51;;;;;;;10.60;2.97;;;;;8.30;100201.00;;;;10522130;28;20242;-78
2021/12/29 07:37:54;;;;;;;9.33;3.03;;;;;8.40;100189.00;;;;10503385;28;20222;-78
2021/12/29 07:42:56;;;;;;;8.00;2.93;;;;;8.40;100202.00;;;;10528704;27;20568;-78
2021/12/29 07:47:58;;;;;;;13.90;4.20;;;;;8.30;100212.00;;;;10535320;27;20288;-78
2021/12/29 07:53:00;;;;;;;10.20;3.17;;;;;8.30;100226.00;;;;10560210;28;20232;-79
2021/12/29 07:58:03;;;;;;;14.63;3.70;;;;;8.20;100208.00;;;;10536321;28;21886;-79
2021/12/29 08:03:06;;;;;;;13.27;3.60;;;;;8.20;100209.00;;;;10534525;27;20220;-79
2021/12/29 08:08:14;;;;;;;9.17;4.33;;;;;8.20;100210.00;;;;10518791;27;20645;-79
2021/12/29 08:13:17;;;;;;;13.97;3.67;;;;;8.20;100210.00;;;;10523202;28;20192;-78
2021/12/29 08:18:19;;;;;;;10.43;3.97;;;;;8.20;100208.00;;;;10555420;27;20184;-78
2021/12/29 08:23:21;;;;;;;14.20;4.33;;;;;8.30;100226.00;;;;10508185;28;20597;-78
2021/12/29 08:28:23;;;;;;;9.53;3.50;;;;;8.30;100225.00;;;;10526875;27;20215;-78
2021/12/29 08:33:25;;;;;;;11.93;3.23;;;;;8.30;100217.00;;;;10542090;27;20220;-79
2021/12/29 08:38:27;;;;;;;14.13;4.10;;;;;8.40;100226.00;;;;10506616;27;20741;-78
2021/12/29 08:43:30;;;;;;;7.73;3.07;;;;;8.40;100220.00;;;;10499785;27;20200;-79
2021/12/29 08:48:33;;;;;;;9.73;3.47;;;;;8.50;100213.00;;;;10542070;27;20209;-79
2021/12/29 08:53:36;;;;;;;13.50;3.67;;;;;8.50;100207.00;;;;10522794;27;20219;-79
2021/12/29 08:58:38;;;;;;;10.33;3.10;;;;;8.60;100206.00;;;;10497441;28;20385;-79
2021/12/29 09:03:40;;;;;;;11.77;3.23;;;;;8.80;100198.00;;;;10551118;28;20245;-78
2021/12/29 09:08:43;;;;;;;15.73;3.20;;;;;8.90;100195.00;;;;10522597;27;20200;-78
2021/12/29 09:13:45;;;;;;;15.90;3.00;;;;;8.90;100197.00;;;;10517795;28;20258;-78
2021/12/29 09:18:47;;;;;;;13.93;3.27;;;;;8.90;100198.00;;;;10505922;28;20196;-78
2021/12/29 09:23:49;;;;;;;10.07;3.03;;;;;8.90;100198.00;;;;10532696;28;20250;-78
2021/12/29 09:28:52;;;;;;;10.93;3.00;;;;;8.90;100179.00;;;;10540317;28;20196;-79
2021/12/29 09:33:56;;;;;;;11.13;2.63;;;;;8.90;100171.00;;;;10518503;28;20686;-80
2021/12/29 09:39:00;;;;;;;7.73;2.87;;;;;8.90;100171.00;;;;10536262;27;20195;-81
2021/12/29 09:44:03;;;;;;;15.10;3.40;;;;;9.00;100174.00;;;;10542288;27;20262;-81
2021/12/29 09:49:05;;;;;;;14.77;3.83;;;;;9.10;100191.00;;;;10521857;28;20602;-81
2021/12/29 09:54:10;;;;;;;12.00;3.40;;;;;9.10;100167.00;;;;10535266;28;20189;-81
2021/12/29 09:59:12;;;;;;;13.60;3.43;;;;;9.20;100154.00;;;;10521888;27;20606;-81
2021/12/29 10:04:15;;;;;;;13.47;3.87;;;;;9.30;100152.00;;;;10513407;28;20279;-81
2021/12/29 10:09:19;;;;;;;9.83;3.50;;;;;9.30;100165.00;;;;10570780;27;20242;-80
2021/12/29 10:14:21;;;;;;;11.53;3.20;;;;;9.40;100174.00;;;;10530075;28;20203;-80
2021/12/29 10:19:23;;;;;;;10.77;3.57;;;;;9.40;100180.00;;;;10530959;28;20245;-81
2021/12/29 10:24:25;;;;;;;10.53;2.83;;;;;9.40;100160.00;;;;10505787;28;20262;-81
2021/12/29 10:29:28;;;;;;;8.37;3.90;;;;;9.40;100153.00;;;;10532566;28;20204;-81
2021/12/29 10:34:32;;;;;;;16.13;4.00;;;;;9.50;100128.00;;;;10545802;28;20216;-81
2021/12/29 10:39:36;;;;;;;10.40;4.17;;;;;9.60;100123.00;;;;10544332;28;20188;-81
2021/12/29 10:44:48;;;;;;;12.50;3.83;;;;;9.70;100124.00;;;;10521581;28;20194;-80
2021/12/29 10:50:11;;;;;;;10.47;4.43;;;;;9.70;100121.00;;;;10524946;28;20198;-80
2021/12/29 10:55:35;;;;;;;12.60;5.10;;;;;9.90;100124.00;;;;10538459;28;21087;-81
2021/12/29 11:00:46;;;;;;;11.50;5.43;;;;;9.90;100103.00;;;;10503925;28;20279;-81
2021/12/29 11:05:58;;;;;;;10.93;5.53;;;;;10.00;100104.00;;;;10539049;28;20224;-80
2021/12/29 11:11:05;;;;;;;11.57;5.17;;;;;10.10;100113.00;;;;10534845;28;20595;-80
2021/12/29 11:16:09;;;;;;;14.97;5.40;;;;;10.10;100121.00;;;;10540342;28;20609;-80
2021/12/29 11:21:38;;;;;;;17.70;5.90;;;;;10.30;100097.00;;;;10524880;28;20242;-80
2021/12/29 11:26:44;;;;;;;12.70;6.73;;;;;10.40;100098.00;;;;10495863;28;20228;-81
2021/12/29 11:31:56;;;;;;;11.23;5.53;;;;;10.50;100096.00;;;;10534160;28;20605;-80
2021/12/29 11:37:18;;;;;;;13.73;6.80;;;;;10.50;100106.00;;;;10531339;28;20204;-81
2021/12/29 11:42:21;;;;;;;10.40;6.63;;;;;10.50;100080.00;;;;10546876;28;20204;-81
2021/12/29 11:47:24;;;;;;;12.60;5.70;;;;;10.50;100086.00;;;;10546100;28;21034;-80
2021/12/29 11:52:32;;;;;;;13.03;6.40;;;;;10.60;100090.00;;;;10534330;28;20189;-80
2021/12/29 11:57:35;;;;;;;12.00;4.53;;;;;10.60;100076.00;;;;10544269;28;20184;-80
2021/12/29 12:02:38;;;;;;;9.80;3.60;;;;;10.50;100082.00;;;;10517972;28;20200;-79
2021/12/29 12:07:41;;;;;;;10.97;3.57;;;;;10.50;100083.00;;;;10518969;27;20208;-80
2021/12/29 12:12:52;;;;;;;9.27;3.20;;;;;10.50;100073.00;;;;10502168;28;20193;-80
2021/12/29 12:17:56;;;;;;;10.30;2.90;;;;;10.50;100073.00;;;;10543535;28;20289;-80
2021/12/29 12:22:58;;;;;;;10.20;2.40;;;;;10.50;100058.00;;;;10514930;28;20204;-80
2021/12/29 12:28:02;;;;;;;9.73;2.57;;;;;10.50;100049.00;;;;10541400;28;20212;-80
2021/12/29 12:33:17;;;;;;;5.53;2.40;;;;;10.50;100046.00;;;;10559606;27;20666;-80
2021/12/29 12:38:34;;;;;;;4.77;2.07;;;;;10.50;100036.00;;;;10537108;27;20221;-80
2021/12/29 12:44:00;;;;;;;4.67;1.90;;;;;10.40;100039.00;;;;10526322;28;20536;-80
2021/12/29 12:49:23;;;;;;;4.83;1.90;;;;;10.30;100034.00;;;;10538478;27;20204;-80
2021/12/29 12:54:31;;;;;;;8.43;2.40;;;;;10.20;100022.00;;;;10517921;28;20716;-80
2021/12/29 12:59:38;;;;;;;5.17;1.97;;;;;10.20;100007.00;;;;10523926;28;20188;-80
2021/12/29 13:05:12;;;;;;;7.33;2.00;;;;;10.20;100000.00;;;;10515630;28;20200;-80
2021/12/29 13:10:41;;;;;;;5.47;2.17;;;;;10.20;100019.00;;;;10531344;27;20192;-81
2021/12/29 13:15:56;;;;;;;9.17;2.50;;;;;10.20;100001.00;;;;10511099;28;20188;-81
2021/12/29 13:21:07;;;;;;;5.70;2.00;;;;;10.20;99982.00;;;;10531607;28;20207;-82
2021/12/29 13:26:10;;;;;;;7.70;2.10;;;;;10.30;99985.00;;;;10516264;28;20240;-82
2021/12/29 13:31:15;;;;;;;4.00;1.50;;;;;10.30;99976.00;;;;10513862;28;20184;-82
2021/12/29 13:36:19;;;;;;;5.27;1.47;;;;;10.20;99981.00;;;;10518922;28;20232;-82
2021/12/29 13:41:25;;;;;;;2.40;1.47;;;;;10.20;99952.00;;;;10506722;28;20193;-82
2021/12/29 13:46:38;;;;;;;1.77;1.20;;;;;10.20;99960.00;;;;10528028;28;20188;-81
2021/12/29 13:51:44;;;;;;;1.73;1.13;;;;;10.20;99960.00;;;;10532188;28;20667;-81
2021/12/29 13:56:52;;;;;;;3.37;1.20;;;;;10.20;99952.00;;;;10525866;28;20188;-81
2021/12/29 14:01:58;;;;;;;4.53;1.13;;;;;10.20;99953.00;;;;10515061;28;20540;-80
2021/12/29 14:07:04;;;;;;;1.77;1.00;;;;;10.30;99942.00;;;;10535626;28;20212;-80
2021/12/29 14:12:16;;;;;;;3.30;1.00;;;;;10.30;99937.00;;;;10492546;28;20552;-80
2021/12/29 14:17:22;;;;;;;1.00;0.90;;;;;10.30;99953.00;;;;10511879;28;20188;-81
2021/12/29 14:22:26;;;;;;;2.10;0.90;;;;;10.40;99950.00;;;;10515089;27;20203;-82
2021/12/29 14:27:30;;;;;;;1.77;1.00;;;;;10.40;99945.00;;;;10486921;28;20213;-82
2021/12/29 14:32:32;;;;;;;2.50;1.83;;;;;10.60;99939.00;;;;10508984;28;20169;-82
2021/12/29 14:37:34;;;;;;;2.33;2.00;;;;;10.70;99933.00;;;;10488279;28;20236;-82
2021/12/29 14:42:37;;;;;;;3.03;2.00;;;;;10.80;99937.00;;;;10525002;28;20862;-82
2021/12/29 14:47:45;;;;;;;2.40;2.20;;;;;10.90;99947.00;;;;10518204;28;20213;-83
2021/12/29 14:52:48;;;;;;;4.10;2.60;;;;;11.00;99948.00;;;;10508246;28;20195;-83
2021/12/29 14:57:50;;;;;;;3.03;2.70;;;;;11.10;99953.00;;;;10501767;28;20183;-83
2021/12/29 15:03:01;;;;;;;4.43;2.97;;;;;11.20;99958.00;;;;10498310;28;20611;-83
2021/12/29 15:08:04;;;;;;;3.30;3.00;;;;;11.30;99968.00;;;;10496328;28;20330;-82
2021/12/29 15:13:15;;;;;;;4.70;3.00;;;;;11.30;99961.00;;;;10528051;28;20189;-82
2021/12/29 15:18:25;;;;;;;3.93;3.63;;;;;11.40;99973.00;;;;10503216;28;20184;-82
2021/12/29 15:23:32;;;;;;;4.53;4.13;;;;;11.40;99978.00;;;;10524940;28;20258;-82
2021/12/29 15:28:38;;;;;;;5.97;5.20;;;;;11.40;99987.00;;;;10521968;28;20200;-82
2021/12/29 15:33:44;;;;;;;6.43;5.37;;;;;11.50;99984.00;;;;10549345;28;20212;-82
2021/12/29 15:38:46;;;;;;;7.27;6.27;;;;;11.50;99977.00;;;;10509583;28;20188;-82
2021/12/29 15:43:49;;;;;;;6.47;5.73;;;;;11.60;99983.00;;;;10541784;28;20197;-82
2021/12/29 15:48:52;;;;;;;9.30;6.63;;;;;11.60;99987.00;;;;10516595;28;20258;-81
2021/12/29 15:53:54;;;;;;;7.23;6.53;;;;;11.70;99994.00;;;;10518844;28;20220;-81
2021/12/29 15:58:56;;;;;;;6.97;6.27;;;;;11.70;99997.00;;;;10502914;28;20185;-81
2021/12/29 16:03:59;;;;;;;8.70;6.73;;;;;11.70;100003.00;;;;10513920;28;20193;-78
2021/12/29 16:09:01;;;;;;;7.53;6.80;;;;;11.80;100012.00;;;;10497006;28;20238;-82
2021/12/29 16:14:04;;;;;;;8.40;7.50;;;;;11.80;99997.00;;;;10509848;28;20188;-82
2021/12/29 16:19:08;;;;;;;9.80;6.37;;;;;11.90;99998.00;;;;10533849;28;20219;-82
2021/12/29 16:24:10;;;;;;;8.20;6.97;;;;;12.00;100012.00;;;;10511513;28;20259;-82
2021/12/29 16:29:12;;;;;;;8.70;7.77;;;;;12.00;100005.00;;;;10552399;27;20257;-82
2021/12/29 16:34:14;;;;;;;9.50;8.13;;;;;12.10;100026.00;;;;10510778;28;20596;-82
2021/12/29 16:39:16;;;;;;;11.97;9.20;;;;;12.20;100049.00;;;;10546394;27;21568;-82
2021/12/29 16:44:18;;;;;;;11.70;9.10;;;;;12.30;100067.00;;;;10533144;27;20192;-82
2021/12/29 16:49:21;;;;;;;13.50;8.77;;;;;12.30;100088.00;;;;10502939;28;20991;-82
2021/12/29 16:54:23;;;;;;;9.40;7.73;;;;;12.40;100103.00;;;;10501241;28;20197;-82
2021/12/29 16:59:26;;;;;;;11.07;6.73;;;;;12.40;100106.00;;;;10506866;28;20188;-82
2021/12/29 17:04:28;;;;;;;9.53;6.07;;;;;12.50;100094.00;;;;10515129;28;20231;-81
2021/12/29 17:09:30;;;;;;;10.30;4.23;;;;;12.50;100090.00;;;;10527531;27;20211;-81
2021/12/29 17:14:35;;;;;;;10.70;4.53;;;;;12.50;100087.00;;;;10497264;28;20583;-81
2021/12/29 17:19:38;;;;;;;10.33;4.00;;;;;12.60;100101.00;;;;10516589;27;20238;-81
2021/12/29 17:24:47;;;;;;;10.40;4.53;;;;;12.60;100115.00;;;;10529143;28;20196;-81
2021/12/29 17:29:50;;;;;;;12.57;4.23;;;;;12.60;100121.00;;;;10532131;28;20197;-81
2021/12/29 17:34:52;;;;;;;9.53;3.53;;;;;12.60;100110.00;;;;10530533;28;20279;-82
2021/12/29 17:40:15;;;;;;;6.33;3.50;;;;;12.60;100116.00;;;;10508227;28;20192;-82
2021/12/29 17:45:19;;;;;;;9.10;3.73;;;;;12.60;100133.00;;;;10488943;28;20239;-81
2021/12/29 17:50:21;;;;;;;9.47;3.73;;;;;12.60;100141.00;;;;10517850;27;20195;-82
2021/12/29 17:55:23;;;;;;;10.97;3.63;;;;;12.70;100136.00;;;;10509576;28;20196;-82
2021/12/29 18:00:25;;;;;;;8.57;3.23;;;;;12.70;100164.00;;;;10510886;28;20262;-82
2021/12/29 18:05:27;;;;;;;9.73;4.13;;;;;12.70;100162.00;;;;10534365;28;20234;-79
2021/12/29 18:10:30;;;;;;;11.73;3.90;;;;;12.70;100164.00;;;;10496992;28;20888;-82
2021/12/29 18:15:33;;;;;;;13.90;4.30;;;;;12.70;100162.00;;;;10542794;28;20222;-82
2021/12/29 18:20:40;;;;;;;9.63;3.80;;;;;12.80;100165.00;;;;10525649;28;20200;-81
2021/12/29 18:25:45;;;;;;;16.53;3.83;;;;;12.80;100194.00;;;;10525615;28;20212;-82
2021/12/29 18:30:53;;;;;;;13.53;3.80;;;;;12.80;100194.00;;;;10544996;28;20188;-82
2021/12/29 18:35:59;;;;;;;18.23;4.60;;;;;12.80;100218.00;;;;10518439;28;20283;-81
2021/12/29 18:41:03;;;;;;;17.17;4.23;;;;;12.90;100228.00;;;;10520649;28;20212;-81
2021/12/29 18:46:05;;;;;;;15.90;4.30;;;;;12.80;100240.00;;;;10507364;28;20200;-81
2021/12/29 18:51:08;;;;;;;11.90;3.67;;;;;12.80;100254.00;;;;10493020;28;20189;-81
2021/12/29 18:56:10;;;;;;;17.23;4.47;;;;;12.80;100275.00;;;;10512176;28;20180;-81
2021/12/29 19:01:12;;;;;;;16.80;4.47;;;;;12.80;100254.00;;;;10508762;28;20208;-81
2021/12/29 19:06:15;;;;;;;17.33;4.33;;;;;12.80;100266.00;;;;10511988;28;20686;-81
2021/12/29 19:11:17;;;;;;;18.60;4.47;;;;;12.70;100285.00;;;;10548307;28;20702;-81
2021/12/29 19:16:21;;;;;;;19.10;4.97;;;;;12.60;100285.00;;;;10509915;28;20188;-81
2021/12/29 19:21:23;;;;;;;22.90;4.93;;;;;12.50;100304.00;;;;10513648;28;20251;-81
2021/12/29 19:26:26;;;;;;;29.60;6.10;;;;;12.60;100303.00;;;;10506644;28;20209;-81
2021/12/29 19:31:28;;;;;;;29.47;5.60;;;;;12.50;100331.00;;;;10530966;27;20198;-81
2021/12/29 19:36:30;;;;;;;27.77;6.43;;;;;12.40;100347.00;;;;10489585;28;20205;-81
2021/12/29 19:41:32;;;;;;;21.53;5.20;;;;;12.40;100354.00;;;;10507810;28;20865;-81
2021/12/29 19:46:36;;;;;;;26.23;6.93;;;;;12.40;100371.00;;;;10537914;27;20208;-81
2021/12/29 19:51:39;;;;;;;26.47;6.63;;;;;12.40;100376.00;;;;10524121;28;20188;-81
2021/12/29 19:56:41;;;;;;;21.73;5.93;;;;;12.30;100381.00;;;;10527574;28;20193;-81
2021/12/29 20:01:44;;;;;;;36.30;7.23;;;;;12.30;100393.00;;;;10523105;28;20238;-81
2021/12/29 20:06:48;;;;;;;30.67;5.57;;;;;12.30;100397.00;;;;10502404;28;20672;-81
2021/12/29 20:11:50;;;;;;;22.00;5.30;;;;;12.20;100408.00;;;;10536359;28;20192;-81
2021/12/29 20:16:52;;;;;;;29.90;6.80;;;;;12.10;100411.00;;;;10520432;28;20678;-81
2021/12/29 20:21:55;;;;;;;38.23;6.43;;;;;12.00;100415.00;;;;10492725;28;20208;-81
2021/12/29 20:27:00;;;;;;;29.20;5.83;;;;;12.00;100436.00;;;;10505383;28;20231;-81
2021/12/29 20:32:03;;;;;;;30.13;5.53;;;;;12.00;100430.00;;;;10516026;28;20201;-81
2021/12/29 20:37:05;;;;;;;32.73;5.80;;;;;12.00;100450.00;;;;10523718;27;20236;-81
2021/12/29 20:42:07;;;;;;;30.77;6.23;;;;;12.00;100461.00;;;;10513260;28;20914;-81
2021/12/29 20:47:10;;;;;;;28.30;6.03;;;;;12.10;100477.00;;;;10508360;28;20255;-81
2021/12/29 20:52:12;;;;;;;36.87;6.93;;;;;12.00;100488.00;;;;10526210;28;20192;-81
2021/12/29 20:57:14;;;;;;;37.63;6.40;;;;;12.10;100519.00;;;;10552434;27;20192;-81
2021/12/29 21:02:16;;;;;;;27.30;5.67;;;;;12.10;100512.00;;;;10554788;27;20191;-81
2021/12/29 21:07:18;;;;;;;31.60;8.07;;;;;12.00;100531.00;;;;10576049;27;20211;-81
2021/12/29 21:12:20;;;;;;;31.10;7.00;;;;;12.00;100534.00;;;;10522441;28;20188;-81
2021/12/29 21:17:22;;;;;;;29.90;6.80;;;;;12.10;100549.00;;;;10492552;28;20201;-81
2021/12/29 21:22:24;;;;;;;35.93;6.23;;;;;12.00;100560.00;;;;10504820;27;20315;-81
2021/12/29 21:27:26;;;;;;;29.13;6.70;;;;;12.00;100570.00;;;;10521326;28;20204;-80
2021/12/29 21:32:34;;;;;;;26.97;7.30;;;;;11.90;100579.00;;;;10530210;28;20199;-81
2021/12/29 21:37:37;;;;;;;31.43;6.63;;;;;11.80;100576.00;;;;10539971;27;20205;-81
2021/12/29 21:42:40;;;;;;;29.40;6.77;;;;;11.80;100569.00;;;;10547764;28;20302;-80
2021/12/29 21:47:43;;;;;;;35.80;7.07;;;;;11.70;100582.00;;;;10564648;28;20216;-79
2021/12/29 21:52:46;;;;;;;36.00;6.97;;;;;11.60;100595.00;;;;10543669;28;20196;-80
2021/12/29 21:57:49;;;;;;;32.87;6.23;;;;;11.70;100600.00;;;;10527376;27;20184;-80
2021/12/29 22:02:51;;;;;;;29.60;6.13;;;;;11.60;100618.00;;;;10479925;28;20292;-80
2021/12/29 22:07:55;;;;;;;26.40;6.67;;;;;11.60;100607.00;;;;10512613;28;20213;-80
2021/12/29 22:12:59;;;;;;;34.03;6.23;;;;;11.50;100626.00;;;;10507556;27;20204;-80
2021/12/29 22:18:04;;;;;;;24.37;5.67;;;;;11.60;100620.00;;;;10514195;27;20190;-80
2021/12/29 22:23:06;;;;;;;26.97;5.80;;;;;11.70;100620.00;;;;10512079;28;20690;-80
2021/12/29 22:28:10;;;;;;;30.47;7.30;;;;;11.70;100629.00;;;;10538645;28;20208;-80
2021/12/29 22:33:13;;;;;;;31.90;6.53;;;;;11.70;100633.00;;;;10526756;28;20195;-80
2021/12/29 22:38:15;;;;;;;31.67;6.00;;;;;11.70;100641.00;;;;10519196;28;20210;-80
2021/12/29 22:43:18;;;;;;;22.73;5.73;;;;;11.80;100648.00;;;;10544792;28;20192;-80
2021/12/29 22:48:26;;;;;;;26.93;5.93;;;;;11.80;100651.00;;;;10504031;28;20295;-78
2021/12/29 22:53:29;;;;;;;27.13;5.20;;;;;11.90;100659.00;;;;10500870;28;20245;-77
2021/12/29 22:58:32;;;;;;;26.90;6.20;;;;;11.90;100645.00;;;;10499724;28;20687;-77
2021/12/29 23:03:35;;;;;;;22.20;5.13;;;;;12.00;100655.00;;;;10525305;28;20196;-78
2021/12/29 23:08:38;;;;;;;29.47;4.97;;;;;12.10;100656.00;;;;10515059;28;20201;-77
2021/12/29 23:14:03;;;;;;;26.97;5.73;;;;;12.10;100656.00;;;;10511561;28;20180;-77
2021/12/29 23:19:08;;;;;;;28.80;6.17;;;;;12.20;100652.00;;;;10541662;28;20189;-77
2021/12/29 23:24:20;;;;;;;24.80;5.83;;;;;12.30;100663.00;;;;10538477;28;20215;-77
2021/12/29 23:29:25;;;;;;;29.70;6.10;;;;;12.30;100679.00;;;;10507641;28;20557;-77
2021/12/29 23:34:27;;;;;;;33.00;6.57;;;;;12.40;100689.00;;;;10515475;28;20265;-75
2021/12/29 23:39:29;;;;;;;31.60;5.63;;;;;12.40;100694.00;;;;10557408;28;20184;-75
2021/12/29 23:44:34;;;;;;;32.97;6.57;;;;;12.50;100698.00;;;;10542202;27;20659;-78
2021/12/29 23:49:36;;;;;;;26.13;6.53;;;;;12.40;100695.00;;;;10533222;28;20259;-78
2021/12/29 23:54:38;;;;;;;23.00;6.30;;;;;12.50;100692.00;;;;10571969;27;20177;-78
2021/12/29 23:59:40;;;;;;;31.93;7.40;;;;;12.50;100682.00;;;;10535636;27;20180;-78
